Whitfield, Mississippi
Current Conditions -  °F | °C
As of 3:54 PM on Sunday 23 Nov 2014 (Local Time) from KJAN Reporting Station
Broken Clouds Broken Clouds  
Wind Chill: 70°   Ceiling: 4400
Heat Index: 70°   Visibility: 10mi
Dew Point: 58°   Wind: 16mph
Humidity: 65%   Direction: 200°SSW
Pressure: 29.52"   Gusts: 25mph
Location:  32.24°N, 90.07°W
Report Text: KJAN 232154Z 20014G22KT 10SM SCT033 BKN044 21/14 A2952 RMK AO2 SLP994 T02110144
Loading
Personal Weather Stations






























Interactive Weather Map New forecast layout! Learn more

10-Day Weather Forecast

Advertisements
Track Severe Weather on mobile